createdAt,value
2018-06-11T00:01:37.098Z,22.70
2018-06-11T00:04:05.273Z,22.70
2018-06-11T00:06:33.458Z,22.70
2018-06-11T00:09:01.634Z,22.60
2018-06-11T00:11:29.845Z,22.60
2018-06-11T00:16:26.013Z,22.60
2018-06-11T00:18:54.205Z,22.60
2018-06-11T00:21:22.413Z,22.60
2018-06-11T00:23:50.592Z,22.60
2018-06-11T00:26:18.786Z,22.60
2018-06-11T00:28:46.977Z,22.50
2018-06-11T00:31:15.225Z,22.60
2018-06-11T00:33:43.437Z,22.50
2018-06-11T00:36:11.649Z,22.50
2018-06-11T00:38:39.842Z,22.50
2018-06-11T00:41:07.994Z,22.50
2018-06-11T00:43:36.189Z,22.60
2018-06-11T00:46:04.430Z,22.50
2018-06-11T00:48:32.605Z,22.50
2018-06-11T00:51:00.772Z,22.50
2018-06-11T00:53:28.973Z,22.50
2018-06-11T00:56:07.557Z,22.50
2018-06-11T00:58:35.770Z,22.50
2018-06-11T01:01:04.165Z,22.50
2018-06-11T01:03:32.334Z,22.50
2018-06-11T01:06:00.562Z,22.50
2018-06-11T01:08:28.762Z,22.50
2018-06-11T01:10:56.938Z,22.50
2018-06-11T01:13:25.140Z,22.50
2018-06-11T01:15:53.314Z,22.40
2018-06-11T01:18:21.543Z,22.40
2018-06-11T01:20:49.758Z,22.50
2018-06-11T01:23:17.941Z,22.40
2018-06-11T01:25:46.098Z,22.40
2018-06-11T01:28:14.362Z,22.40
2018-06-11T01:30:42.650Z,22.40
2018-06-11T01:33:10.908Z,22.30
2018-06-11T01:35:39.125Z,22.30
2018-06-11T01:38:07.361Z,22.30
2018-06-11T01:40:35.565Z,22.30
2018-06-11T01:43:03.872Z,22.30
2018-06-11T01:45:32.092Z,22.30
2018-06-11T01:48:00.277Z,22.20
2018-06-11T01:50:28.488Z,22.20
2018-06-11T01:52:56.643Z,22.20
2018-06-11T01:55:24.853Z,22.20
2018-06-11T01:57:53.034Z,22.20
2018-06-11T02:00:21.213Z,22.20
2018-06-11T02:02:49.393Z,22.20
2018-06-11T02:05:17.642Z,22.20
2018-06-11T02:07:45.818Z,22.20
2018-06-11T02:10:14.001Z,22.20
2018-06-11T02:12:42.154Z,22.10
2018-06-11T02:15:10.336Z,22.10
2018-06-11T02:17:38.585Z,22.10
2018-06-11T02:20:06.775Z,22.20
2018-06-11T02:22:34.930Z,22.20
2018-06-11T02:27:31.144Z,22.20
2018-06-11T02:29:59.354Z,22.10
2018-06-11T02:32:27.587Z,22.20
2018-06-11T02:34:55.742Z,22.20
2018-06-11T02:37:23.907Z,22.10
2018-06-11T02:39:52.087Z,22.10
2018-06-11T02:42:20.254Z,22.20
2018-06-11T02:44:48.425Z,22.10
2018-06-11T02:47:16.558Z,22.10
2018-06-11T02:49:44.747Z,22.00
2018-06-11T02:52:12.974Z,22.10
2018-06-11T02:54:41.142Z,22.10
2018-06-11T02:57:09.354Z,22.10
2018-06-11T02:59:37.532Z,22.10
2018-06-11T03:02:05.747Z,22.10
2018-06-11T03:04:33.965Z,22.00
2018-06-11T03:07:02.094Z,22.00
2018-06-11T03:09:30.329Z,22.00
2018-06-11T03:11:58.487Z,22.00
2018-06-11T03:14:26.690Z,22.10
2018-06-11T03:16:54.902Z,22.00
2018-06-11T03:19:23.094Z,22.00
2018-06-11T03:21:51.269Z,22.00
2018-06-11T03:24:19.485Z,22.00
2018-06-11T03:26:47.665Z,22.00
2018-06-11T03:31:43.993Z,21.90
2018-06-11T03:34:12.170Z,21.90
2018-06-11T03:36:40.353Z,21.90
2018-06-11T03:39:08.914Z,21.90
2018-06-11T03:41:37.441Z,21.90
2018-06-11T03:44:05.593Z,21.90
2018-06-11T03:46:33.777Z,21.90
2018-06-11T03:49:01.994Z,21.90
2018-06-11T03:51:30.184Z,21.90
2018-06-11T03:53:58.417Z,22.00
2018-06-11T03:56:26.649Z,22.00
2018-06-11T03:58:54.802Z,22.00
2018-06-11T04:01:22.970Z,21.90
2018-06-11T04:03:51.149Z,21.90
2018-06-11T04:06:19.426Z,22.00
2018-06-11T04:08:47.590Z,22.00
2018-06-11T04:11:15.782Z,22.00
2018-06-11T04:13:43.946Z,22.00
2018-06-11T04:16:12.173Z,22.00
2018-06-11T04:18:40.390Z,22.00
2018-06-11T04:21:08.598Z,22.00
2018-06-11T04:26:04.885Z,22.00
2018-06-11T04:28:33.089Z,22.00
2018-06-11T04:31:01.213Z,22.00
2018-06-11T04:33:29.346Z,22.00
2018-06-11T04:35:57.510Z,22.00
2018-06-11T04:38:25.693Z,21.90
2018-06-11T04:40:53.841Z,21.90
2018-06-11T04:43:22.089Z,22.00
2018-06-11T04:45:50.273Z,22.00
2018-06-11T04:48:18.486Z,22.00
2018-06-11T04:50:46.734Z,22.00
2018-06-11T04:53:14.909Z,22.00
2018-06-11T04:55:43.278Z,22.00
2018-06-11T04:58:11.961Z,22.00
2018-06-11T05:00:40.166Z,22.00
2018-06-11T05:03:08.366Z,22.00
2018-06-11T05:05:36.522Z,22.00
2018-06-11T05:08:04.762Z,22.00
2018-06-11T05:10:32.914Z,22.00
2018-06-11T05:13:01.284Z,22.00
2018-06-11T05:15:29.538Z,22.00
2018-06-11T05:17:57.713Z,22.00
2018-06-11T05:20:25.918Z,22.00
2018-06-11T05:22:54.086Z,22.00
2018-06-11T05:25:22.326Z,22.00
2018-06-11T05:27:50.533Z,22.00
2018-06-11T05:30:18.717Z,22.00
2018-06-11T05:32:46.882Z,22.00
2018-06-11T05:35:15.038Z,22.10
2018-06-11T05:40:11.234Z,22.10
2018-06-11T05:42:39.477Z,22.10
2018-06-11T05:45:07.656Z,22.10
2018-06-11T05:47:35.859Z,22.10
2018-06-11T05:50:04.106Z,22.20
2018-06-11T05:52:32.301Z,22.20
2018-06-11T05:55:00.505Z,22.20
2018-06-11T05:57:28.706Z,22.20
2018-06-11T06:02:24.822Z,22.20
2018-06-11T06:04:53.018Z,22.20
2018-06-11T06:07:21.225Z,22.20
2018-06-11T06:09:49.498Z,22.20
2018-06-11T06:12:17.706Z,22.20
2018-06-11T06:14:45.881Z,22.20
2018-06-11T06:17:14.046Z,22.20
2018-06-11T06:19:42.322Z,22.20
2018-06-11T06:22:10.550Z,22.30
2018-06-11T06:24:38.737Z,22.30
2018-06-11T06:27:06.919Z,22.30
2018-06-11T06:29:35.154Z,22.30
2018-06-11T06:34:31.296Z,22.30
2018-06-11T06:36:59.493Z,22.30
2018-06-11T06:39:27.637Z,22.40
2018-06-11T06:41:55.849Z,22.40
2018-06-11T06:44:24.014Z,22.40
2018-06-11T06:46:52.261Z,22.40
2018-06-11T06:49:20.438Z,22.40
2018-06-11T06:51:48.632Z,22.50
2018-06-11T06:54:16.817Z,22.50
2018-06-11T06:56:45.042Z,22.50
2018-06-11T06:59:13.285Z,22.50
2018-06-11T07:01:41.574Z,22.50
2018-06-11T07:04:09.766Z,22.50
2018-06-11T07:06:37.987Z,22.50
2018-06-11T07:09:07.892Z,22.50
2018-06-11T07:11:36.426Z,22.50
2018-06-11T07:14:04.598Z,22.50
2018-06-11T07:16:32.822Z,22.50
2018-06-11T07:19:01.049Z,22.60
2018-06-11T07:21:29.326Z,22.60
2018-06-11T07:23:57.570Z,22.60
2018-06-11T07:26:25.802Z,22.60
2018-06-11T07:28:53.982Z,22.60
2018-06-11T07:31:22.219Z,22.60
2018-06-11T07:33:50.385Z,22.60
2018-06-11T07:36:18.606Z,22.60
2018-06-11T07:38:46.802Z,22.60
2018-06-11T07:41:14.954Z,22.70
2018-06-11T07:43:43.093Z,22.70
2018-06-11T07:46:11.322Z,22.70
2018-06-11T07:48:39.498Z,22.70
2018-06-11T07:51:07.698Z,22.70
2018-06-11T07:53:35.922Z,22.70
2018-06-11T07:56:04.074Z,22.70
2018-06-11T07:58:32.361Z,22.70
2018-06-11T08:01:00.543Z,22.70
2018-06-11T08:03:28.713Z,22.70
2018-06-11T08:05:56.903Z,22.70
2018-06-11T08:08:25.185Z,22.80
2018-06-11T08:10:53.331Z,22.70
2018-06-11T08:13:21.584Z,22.70
2018-06-11T08:15:49.757Z,22.70
2018-06-11T08:18:17.965Z,22.80
2018-06-11T08:20:46.188Z,22.70
2018-06-11T08:23:14.358Z,22.70
2018-06-11T08:25:43.100Z,22.70
2018-06-11T08:28:11.354Z,22.80
2018-06-11T08:30:39.537Z,22.80
2018-06-11T08:33:07.781Z,22.80
2018-06-11T08:35:35.999Z,22.80
2018-06-11T08:38:04.166Z,22.80
2018-06-11T08:40:32.366Z,22.80
2018-06-11T08:43:00.611Z,22.80
2018-06-11T08:45:28.774Z,22.80
2018-06-11T08:47:56.937Z,22.80
2018-06-11T08:50:25.122Z,22.80
2018-06-11T08:52:53.322Z,22.80
2018-06-11T08:55:21.501Z,22.80
2018-06-11T08:57:49.749Z,22.80
2018-06-11T09:00:17.925Z,22.80
2018-06-11T09:02:46.090Z,22.80
2018-06-11T09:05:14.846Z,22.80
2018-06-11T09:07:43.022Z,22.80
2018-06-11T09:10:11.242Z,22.90
2018-06-11T09:12:39.431Z,22.80
2018-06-11T09:15:07.639Z,22.80
2018-06-11T09:17:35.910Z,22.90
2018-06-11T09:20:04.180Z,22.90
2018-06-11T09:22:32.381Z,22.90
2018-06-11T09:25:00.585Z,22.90
2018-06-11T09:27:28.769Z,22.90
2018-06-11T09:29:57.005Z,22.90
2018-06-11T09:32:25.249Z,22.90
2018-06-11T09:34:53.478Z,22.90
2018-06-11T09:37:21.705Z,22.90
2018-06-11T09:39:49.855Z,23.00
2018-06-11T09:42:18.048Z,23.00
2018-06-11T09:44:46.247Z,23.00
2018-06-11T09:47:14.465Z,22.90
2018-06-11T09:49:42.666Z,22.90
2018-06-11T09:52:10.854Z,23.00
2018-06-11T09:54:39.042Z,23.00
2018-06-11T09:57:07.227Z,23.00
2018-06-11T09:59:35.403Z,23.00
2018-06-11T10:02:03.674Z,23.00
2018-06-11T10:04:31.937Z,23.00
2018-06-11T10:07:00.102Z,23.00
2018-06-11T10:09:28.334Z,23.00
2018-06-11T10:11:56.503Z,23.00
2018-06-11T10:14:24.726Z,23.10
2018-06-11T10:16:52.926Z,23.10
2018-06-11T10:19:21.188Z,23.10
2018-06-11T10:21:49.339Z,23.10
2018-06-11T10:24:17.533Z,23.20
2018-06-11T10:26:45.753Z,23.20
2018-06-11T10:29:13.961Z,23.20
2018-06-11T10:31:42.122Z,23.20
2018-06-11T10:34:10.305Z,23.20
2018-06-11T10:36:38.565Z,23.20
2018-06-11T10:39:07.882Z,23.30
2018-06-11T10:41:36.036Z,23.30
2018-06-11T10:44:04.225Z,23.30
2018-06-11T10:49:00.374Z,23.30
2018-06-11T10:51:28.635Z,23.30
2018-06-11T10:53:56.890Z,23.30
2018-06-11T10:56:25.101Z,23.40
2018-06-11T10:58:53.317Z,23.40
2018-06-11T11:01:21.583Z,23.40
2018-06-11T11:03:49.762Z,23.40
2018-06-11T11:06:17.921Z,23.40
2018-06-11T11:08:46.109Z,23.40
2018-06-11T11:11:14.294Z,23.40
2018-06-11T11:13:42.524Z,23.40
2018-06-11T11:16:10.722Z,23.50
2018-06-11T11:18:38.942Z,23.50
2018-06-11T11:21:07.113Z,23.50
2018-06-11T11:23:35.283Z,23.50
2018-06-11T11:26:03.419Z,23.50
2018-06-11T11:28:31.658Z,23.50
2018-06-11T11:30:59.851Z,23.60
2018-06-11T11:33:28.033Z,23.60
2018-06-11T11:35:56.248Z,23.70
2018-06-11T11:38:24.481Z,23.70
2018-06-11T11:40:52.646Z,23.70
2018-06-11T11:43:20.827Z,23.60
2018-06-11T11:45:48.984Z,23.70
2018-06-11T11:48:17.209Z,23.70
2018-06-11T11:50:45.488Z,23.60
2018-06-11T11:53:13.698Z,23.60
2018-06-11T11:55:42.597Z,23.60
2018-06-11T11:58:11.936Z,23.50
2018-06-11T12:00:40.093Z,23.50
2018-06-11T12:03:08.294Z,23.50
2018-06-11T12:05:36.517Z,23.60
2018-06-11T12:08:04.745Z,23.60
2018-06-11T12:10:32.978Z,23.60
2018-06-11T12:13:01.698Z,23.60
2018-06-11T12:15:29.946Z,23.60
2018-06-11T12:17:58.150Z,23.60
2018-06-11T12:20:26.365Z,23.70
2018-06-11T12:22:54.525Z,23.70
2018-06-11T12:25:22.715Z,23.70
2018-06-11T12:27:50.924Z,23.70
2018-06-11T12:30:19.823Z,24.30
2018-06-11T12:32:47.989Z,23.60
2018-06-11T12:35:16.158Z,23.60
2018-06-11T12:37:44.321Z,23.60
2018-06-11T12:40:12.474Z,23.60
2018-06-11T12:42:40.634Z,23.60
2018-06-11T12:45:08.798Z,23.50
2018-06-11T12:47:37.043Z,23.50
2018-06-11T12:50:05.226Z,23.50
2018-06-11T12:52:33.439Z,23.50
2018-06-11T12:55:01.622Z,23.50
2018-06-11T12:57:29.814Z,23.50
2018-06-11T12:59:57.965Z,23.50
2018-06-11T13:02:26.159Z,23.50
2018-06-11T13:04:54.321Z,23.50
2018-06-11T13:07:22.530Z,23.50
2018-06-11T13:09:50.765Z,23.50
2018-06-11T13:14:46.890Z,23.40
2018-06-11T13:17:15.121Z,23.40
2018-06-11T13:19:43.294Z,23.40
2018-06-11T13:22:12.188Z,23.40
2018-06-11T13:24:40.326Z,23.40
2018-06-11T13:27:08.536Z,23.40
2018-06-11T13:29:36.747Z,23.40
2018-06-11T13:32:04.958Z,23.40
2018-06-11T13:34:33.126Z,23.40
2018-06-11T13:39:29.258Z,23.30
2018-06-11T13:41:57.513Z,23.30
2018-06-11T13:44:25.708Z,23.30
2018-06-11T13:46:53.895Z,23.30
2018-06-11T13:49:22.070Z,23.30
2018-06-11T13:51:50.242Z,23.30
2018-06-11T13:54:18.468Z,23.20
2018-06-11T13:56:46.685Z,23.20
2018-06-11T13:59:14.899Z,23.20
2018-06-11T14:01:43.071Z,23.20
2018-06-11T14:04:11.223Z,23.20
2018-06-11T14:06:39.470Z,23.20
2018-06-11T14:09:08.129Z,23.10
2018-06-11T14:11:36.520Z,23.10
2018-06-11T14:14:04.681Z,23.10
2018-06-11T14:16:32.866Z,23.10
2018-06-11T14:19:01.081Z,23.00
2018-06-11T14:21:29.285Z,23.00
2018-06-11T14:23:57.529Z,23.00
2018-06-11T14:26:25.697Z,23.00
2018-06-11T14:28:53.901Z,23.00
2018-06-11T14:31:22.095Z,23.00
2018-06-11T14:33:50.274Z,22.90
2018-06-11T14:36:18.481Z,22.90
2018-06-11T14:38:46.673Z,22.90
2018-06-11T14:41:14.949Z,22.90
2018-06-11T14:43:43.117Z,22.90
2018-06-11T14:46:11.281Z,22.90
2018-06-11T14:48:39.429Z,22.90
2018-06-11T14:51:07.650Z,22.80
2018-06-11T14:53:35.905Z,22.80
2018-06-11T14:56:04.117Z,22.70
2018-06-11T14:58:32.301Z,22.70
2018-06-11T15:01:00.545Z,22.70
2018-06-11T15:03:28.698Z,22.70
2018-06-11T15:05:56.896Z,22.60
2018-06-11T15:08:25.057Z,22.60
2018-06-11T15:10:53.258Z,22.60
2018-06-11T15:13:21.461Z,22.60
2018-06-11T15:15:49.715Z,22.50
2018-06-11T15:18:18.455Z,22.50
2018-06-11T15:20:46.674Z,22.50
2018-06-11T15:23:14.869Z,22.40
2018-06-11T15:25:43.050Z,22.40
2018-06-11T15:28:11.266Z,22.40
2018-06-11T15:30:39.458Z,22.40
2018-06-11T15:33:07.705Z,22.40
2018-06-11T15:35:35.968Z,22.40
2018-06-11T15:38:04.170Z,22.40
2018-06-11T15:40:32.347Z,22.40
2018-06-11T15:43:00.514Z,22.40
2018-06-11T15:45:28.814Z,22.30
2018-06-11T15:47:57.029Z,22.30
2018-06-11T15:50:25.219Z,22.30
2018-06-11T15:52:53.427Z,22.30
2018-06-11T15:55:21.617Z,22.30
2018-06-11T15:57:49.797Z,22.20
2018-06-11T16:00:17.977Z,22.20
2018-06-11T16:02:46.682Z,22.30
2018-06-11T16:05:14.916Z,22.20
2018-06-11T16:07:43.090Z,22.20
2018-06-11T16:10:11.303Z,22.20
2018-06-11T16:12:39.511Z,22.20
2018-06-11T16:15:07.680Z,22.10
2018-06-11T16:17:35.858Z,22.10
2018-06-11T16:22:32.060Z,22.10
2018-06-11T16:25:00.197Z,22.10
2018-06-11T16:27:28.442Z,22.10
2018-06-11T16:29:56.719Z,22.10
2018-06-11T16:32:24.914Z,22.10
2018-06-11T16:34:53.096Z,22.10
2018-06-11T16:37:21.278Z,22.10
2018-06-11T16:39:49.458Z,22.10
2018-06-11T16:42:18.143Z,22.00
2018-06-11T16:44:46.317Z,22.00
2018-06-11T16:47:14.592Z,22.00
2018-06-11T16:49:42.757Z,22.00
2018-06-11T16:52:10.993Z,22.00
2018-06-11T16:54:39.181Z,22.00
2018-06-11T16:59:35.461Z,22.00
2018-06-11T17:02:03.828Z,21.90
2018-06-11T17:04:33.944Z,21.90
2018-06-11T17:07:03.946Z,21.90
2018-06-11T17:09:32.361Z,21.90
2018-06-11T17:12:00.517Z,21.90
2018-06-11T17:14:30.109Z,21.90
2018-06-11T17:17:00.033Z,21.90
2018-06-11T17:19:29.699Z,21.90
2018-06-11T17:22:00.045Z,22.70
2018-06-11T17:24:30.186Z,21.80
2018-06-11T17:26:59.898Z,21.90
2018-06-11T17:29:30.393Z,21.90
2018-06-11T17:32:00.615Z,21.90
2018-06-11T17:34:30.236Z,21.80
2018-06-11T17:37:00.462Z,21.90
2018-06-11T17:39:30.243Z,21.90
2018-06-11T17:42:00.155Z,21.80
2018-06-11T17:44:30.385Z,21.90
2018-06-11T17:47:00.282Z,21.90
2018-06-11T17:49:30.482Z,21.80
2018-06-11T17:51:58.814Z,21.80
2018-06-11T17:54:27.033Z,21.80
2018-06-11T17:56:55.205Z,21.80
2018-06-11T17:59:23.375Z,21.80
2018-06-11T18:01:51.579Z,21.70
2018-06-11T18:04:19.836Z,21.80
2018-06-11T18:06:47.962Z,21.70
2018-06-11T18:09:16.168Z,21.80
2018-06-11T18:11:44.365Z,21.70
2018-06-11T18:14:12.578Z,21.70
2018-06-11T18:16:40.764Z,21.70
2018-06-11T18:19:08.997Z,21.80
2018-06-11T18:21:37.178Z,21.70
2018-06-11T18:24:05.438Z,21.60
2018-06-11T18:26:33.630Z,21.60
2018-06-11T18:29:01.810Z,21.60
2018-06-11T18:31:30.022Z,21.70
2018-06-11T18:33:58.180Z,21.70
2018-06-11T18:36:26.335Z,21.70
2018-06-11T18:38:54.525Z,21.70
2018-06-11T18:41:22.725Z,21.60
2018-06-11T18:43:50.904Z,21.60
2018-06-11T18:46:19.057Z,21.60
2018-06-11T18:48:47.291Z,21.70
2018-06-11T18:51:15.454Z,21.70
2018-06-11T18:53:43.666Z,21.60
2018-06-11T18:56:11.901Z,21.60
2018-06-11T18:58:40.085Z,21.60
2018-06-11T19:01:08.289Z,21.60
2018-06-11T19:03:36.485Z,21.60
2018-06-11T19:06:04.730Z,21.60
2018-06-11T19:08:32.934Z,21.60
2018-06-11T19:11:01.090Z,21.60
2018-06-11T19:13:29.226Z,21.60
2018-06-11T19:15:57.486Z,21.60
2018-06-11T19:18:25.640Z,21.60
2018-06-11T19:20:53.820Z,21.60
2018-06-11T19:23:22.010Z,21.60
2018-06-11T19:25:50.265Z,21.60
2018-06-11T19:28:18.438Z,21.60
2018-06-11T19:30:46.668Z,21.50
2018-06-11T19:33:14.902Z,21.50
2018-06-11T19:35:43.063Z,21.50
2018-06-11T19:38:11.253Z,21.40
2018-06-11T19:40:39.453Z,21.50
2018-06-11T19:43:07.621Z,21.40
2018-06-11T19:45:36.251Z,21.40
2018-06-11T19:48:04.422Z,21.40
2018-06-11T19:50:32.614Z,21.40
2018-06-11T19:53:00.902Z,21.40
2018-06-11T19:55:29.017Z,21.40
2018-06-11T19:57:57.259Z,21.40
2018-06-11T20:00:25.561Z,21.40
2018-06-11T20:02:53.787Z,21.40
2018-06-11T20:05:21.978Z,21.40
2018-06-11T20:07:50.185Z,21.30
2018-06-11T20:10:18.429Z,21.30
2018-06-11T20:12:46.601Z,21.30
2018-06-11T20:15:15.694Z,21.30
2018-06-11T20:17:43.890Z,21.30
2018-06-11T20:20:12.090Z,21.30
2018-06-11T20:22:40.349Z,21.30
2018-06-11T20:25:08.533Z,21.30
2018-06-11T20:27:36.718Z,21.30
2018-06-11T20:30:05.085Z,21.20
2018-06-11T20:32:33.315Z,21.20
2018-06-11T20:35:01.457Z,21.20
2018-06-11T20:37:29.607Z,21.20
2018-06-11T20:39:57.829Z,21.20
2018-06-11T20:42:26.033Z,21.20
2018-06-11T20:44:54.246Z,21.20
2018-06-11T20:49:50.313Z,21.20
2018-06-11T20:52:18.474Z,21.20
2018-06-11T20:54:46.671Z,21.10
2018-06-11T20:57:14.874Z,21.10
2018-06-11T20:59:43.118Z,21.10
2018-06-11T21:02:11.370Z,21.10
2018-06-11T21:07:07.654Z,21.10
2018-06-11T21:09:35.865Z,21.10
2018-06-11T21:12:04.058Z,21.10
2018-06-11T21:17:00.242Z,21.00
2018-06-11T21:19:28.525Z,21.10
2018-06-11T21:21:56.753Z,21.00
2018-06-11T21:24:24.933Z,21.00
2018-06-11T21:26:53.160Z,21.10
2018-06-11T21:29:21.312Z,21.00
2018-06-11T21:31:49.550Z,21.00
2018-06-11T21:34:17.767Z,21.00
2018-06-11T21:36:45.970Z,21.10
2018-06-11T21:39:14.138Z,21.00
2018-06-11T21:41:42.268Z,21.00
2018-06-11T21:44:10.530Z,21.00
2018-06-11T21:46:38.874Z,20.90
2018-06-11T21:49:07.051Z,20.90
2018-06-11T21:54:03.274Z,20.90
2018-06-11T21:56:31.445Z,20.90
2018-06-11T21:58:59.629Z,20.90
2018-06-11T22:01:27.818Z,20.90
2018-06-11T22:03:56.183Z,20.90
2018-06-11T22:06:24.258Z,20.80
2018-06-11T22:08:52.482Z,20.90
2018-06-11T22:11:20.682Z,20.90
2018-06-11T22:13:48.905Z,20.80
2018-06-11T22:18:45.062Z,20.80
2018-06-11T22:21:13.237Z,20.80
2018-06-11T22:23:41.365Z,20.70
2018-06-11T22:26:09.534Z,20.70
2018-06-11T22:28:37.793Z,20.70
2018-06-11T22:31:06.020Z,20.80
2018-06-11T22:33:34.242Z,20.80
2018-06-11T22:36:02.450Z,20.80
2018-06-11T22:38:30.654Z,20.70
2018-06-11T22:40:58.881Z,20.70
2018-06-11T22:43:27.616Z,20.70
2018-06-11T22:45:55.810Z,20.70
2018-06-11T22:48:24.133Z,20.70
2018-06-11T22:50:52.323Z,20.70
2018-06-11T22:53:20.613Z,20.60
2018-06-11T22:55:48.793Z,20.70
2018-06-11T22:58:16.980Z,20.60
2018-06-11T23:00:45.139Z,20.60
2018-06-11T23:03:13.285Z,20.70
2018-06-11T23:05:41.558Z,20.70
2018-06-11T23:08:09.723Z,20.60
2018-06-11T23:10:38.023Z,20.60
2018-06-11T23:13:06.234Z,20.60
2018-06-11T23:15:34.454Z,20.60
2018-06-11T23:18:02.622Z,20.60
2018-06-11T23:20:30.862Z,20.60
2018-06-11T23:22:59.029Z,20.60
2018-06-11T23:25:27.293Z,20.60
2018-06-11T23:27:55.482Z,20.60
2018-06-11T23:30:23.654Z,20.60
2018-06-11T23:32:51.853Z,20.50
2018-06-11T23:35:20.030Z,20.50
2018-06-11T23:37:48.222Z,20.50
2018-06-11T23:40:16.406Z,20.60
2018-06-11T23:42:44.626Z,20.60
2018-06-11T23:46:10.414Z,20.60
2018-06-11T23:55:19.360Z,20.60
2018-06-11T23:58:14.250Z,20.60
